Donnellson, Iowa
Current Conditions -  °F | °C
As of 7:35 PM on Monday 22 Dec 2014 (Local Time) from KFSW Reporting Station
Light Rain Light Rain  
Wind Chill: 40°   Ceiling: 300
Heat Index: 45°   Visibility: 4mi
Dew Point: 45°   Wind: 9mph
Humidity: 100%   Direction: 110°ESE
Pressure: 29.5"   Gusts: NA
Location:  40.64°N, 91.56°W
Report Text: KFSW 230135Z AUTO 11008KT 4SM -RA OVC003 07/07 A2950 RMK AO2 P0001
Loading
Personal Weather Stations






























Interactive Weather Map New forecast layout! Learn more

10-Day Weather Forecast

Advertisements
Track Severe Weather on mobile